Terminal Aerodrome Forecast
Issued by NWS

Home | Current Version | Previous Version | Text Only | Print | Product List | Glossary On
Versions: 1 2 3 4 5 6 7 8 9 10 11 12 13 14 15 16 17 18 19 20
000
FTUS46 KSEW 172353 AAA
TAFOLM
TAF AMD
KOLM 172353Z 1800/1824 31004KT P6SM FEW030
     FM180300 VRB03KT P6SM SKC
     FM180900 VRB03KT P6SM OVC022
     FM181200 VRB03KT P6SM OVC015
     FM181800 21007KT P6SM OVC025
     FM182200 24007KT P6SM BKN035 BKN050=

USA.gov is the U.S. government's official web portal to all federal, state and local government web resources and services.